createdAt,value
2019-02-26T00:00:33.445Z,4.83
2019-02-26T00:01:28.712Z,4.33
2019-02-26T00:02:06.249Z,3.50
2019-02-26T00:03:04.642Z,3.63
2019-02-26T00:03:45.191Z,4.50
2019-02-26T00:04:25.483Z,5.03
2019-02-26T00:05:08.279Z,4.57
2019-02-26T00:05:56.839Z,4.20
2019-02-26T00:06:47.200Z,4.40
2019-02-26T00:07:28.143Z,3.80
2019-02-26T00:08:06.192Z,4.03
2019-02-26T00:08:49.262Z,4.00
2019-02-26T00:09:28.370Z,4.60
2019-02-26T00:11:03.815Z,4.00
2019-02-26T00:11:44.866Z,4.03
2019-02-26T00:12:44.931Z,3.90
2019-02-26T00:13:27.181Z,3.50
2019-02-26T00:14:04.589Z,3.83
2019-02-26T00:14:50.098Z,4.30
2019-02-26T00:15:35.532Z,3.20
2019-02-26T00:16:15.336Z,3.83
2019-02-26T00:16:51.610Z,3.10
2019-02-26T00:17:38.593Z,3.17
2019-02-26T00:18:16.808Z,4.23
2019-02-26T00:19:57.790Z,3.70
2019-02-26T00:20:37.400Z,2.93
2019-02-26T00:21:26.425Z,3.33
2019-02-26T00:22:03.047Z,3.10
2019-02-26T00:22:49.386Z,3.40
2019-02-26T00:23:31.658Z,3.40
2019-02-26T00:24:30.854Z,3.10
2019-02-26T00:25:10.451Z,3.20
2019-02-26T00:25:50.481Z,2.57
2019-02-26T00:26:47.639Z,4.53
2019-02-26T00:27:30.610Z,3.50
2019-02-26T00:28:15.387Z,3.77
2019-02-26T00:30:01.442Z,3.63
2019-02-26T00:30:38.694Z,3.83
2019-02-26T00:31:23.821Z,3.63
2019-02-26T00:32:02.729Z,3.70
2019-02-26T00:32:48.800Z,3.60
2019-02-26T00:33:28.980Z,3.80
2019-02-26T00:34:14.009Z,3.70
2019-02-26T00:35:01.775Z,3.30
2019-02-26T00:35:48.133Z,2.93
2019-02-26T00:36:27.191Z,4.00
2019-02-26T00:37:09.794Z,3.60
2019-02-26T00:37:53.464Z,4.07
2019-02-26T00:38:33.015Z,4.43
2019-02-26T00:39:16.056Z,4.20
2019-02-26T00:40:04.135Z,3.60
2019-02-26T00:40:43.217Z,4.20
2019-02-26T00:41:31.865Z,3.33
2019-02-26T00:42:12.364Z,3.70
2019-02-26T00:43:02.551Z,3.90
2019-02-26T00:43:53.166Z,3.60
2019-02-26T00:44:37.398Z,3.43
2019-02-26T00:45:26.938Z,3.73
2019-02-26T00:46:32.433Z,4.07
2019-02-26T00:47:15.546Z,3.80
2019-02-26T00:47:54.779Z,4.43
2019-02-26T00:48:38.853Z,4.20
2019-02-26T00:49:15.319Z,3.53
2019-02-26T00:49:59.320Z,3.30
2019-02-26T00:50:37.288Z,3.47
2019-02-26T00:51:27.706Z,4.20
2019-02-26T00:52:06.393Z,3.30
2019-02-26T00:52:46.820Z,3.93
2019-02-26T00:53:25.853Z,3.70
2019-02-26T00:54:07.336Z,4.13
2019-02-26T00:54:47.149Z,3.73
2019-02-26T00:55:48.641Z,4.57
2019-02-26T00:57:06.445Z,3.47
2019-02-26T00:57:51.852Z,4.60
2019-02-26T00:58:32.108Z,4.00
2019-02-26T00:59:11.055Z,4.87
2019-02-26T00:59:48.266Z,4.50
2019-02-26T01:00:28.516Z,3.80
2019-02-26T01:01:12.146Z,4.50
2019-02-26T01:01:59.413Z,3.70
2019-02-26T01:02:58.079Z,3.77
2019-02-26T01:03:58.405Z,3.73
2019-02-26T01:04:39.089Z,4.73
2019-02-26T01:05:18.539Z,5.20
2019-02-26T01:06:01.615Z,4.00
2019-02-26T01:06:43.701Z,4.27
2019-02-26T01:07:36.530Z,5.00
2019-02-26T01:08:19.621Z,5.60
2019-02-26T01:09:03.658Z,4.80
2019-02-26T01:10:14.001Z,4.30
2019-02-26T01:10:56.965Z,4.50
2019-02-26T01:11:34.061Z,4.40
2019-02-26T01:12:18.221Z,4.70
2019-02-26T01:13:03.029Z,4.23
2019-02-26T01:13:40.871Z,4.50
2019-02-26T01:14:18.654Z,3.77
2019-02-26T01:16:18.425Z,3.67
2019-02-26T01:18:08.346Z,3.33
2019-02-26T01:18:46.676Z,4.00
2019-02-26T01:19:34.169Z,4.97
2019-02-26T01:20:14.359Z,3.77
2019-02-26T01:20:52.673Z,3.40
2019-02-26T01:21:34.102Z,4.70
2019-02-26T01:22:14.361Z,4.97
2019-02-26T01:22:53.185Z,4.13
2019-02-26T01:23:43.796Z,3.50
2019-02-26T01:24:27.975Z,4.50
2019-02-26T01:25:07.877Z,4.37
2019-02-26T01:25:59.849Z,4.80
2019-02-26T01:26:43.499Z,4.97
2019-02-26T01:27:22.400Z,4.90
2019-02-26T01:28:00.620Z,4.70
2019-02-26T01:28:46.177Z,5.10
2019-02-26T01:29:33.016Z,4.47
2019-02-26T01:30:18.140Z,5.40
2019-02-26T01:30:56.159Z,3.50
2019-02-26T01:31:33.955Z,5.43
2019-02-26T01:32:26.468Z,3.80
2019-02-26T01:33:08.042Z,5.50
2019-02-26T01:33:55.326Z,4.20
2019-02-26T01:34:33.169Z,5.60
2019-02-26T01:35:13.072Z,4.50
2019-02-26T01:35:56.168Z,4.93
2019-02-26T01:37:05.950Z,4.60
2019-02-26T01:37:51.318Z,4.97
2019-02-26T01:38:29.108Z,4.53
2019-02-26T01:39:13.431Z,5.10
2019-02-26T01:39:53.925Z,5.40
2019-02-26T01:40:57.819Z,5.20
2019-02-26T01:41:46.079Z,5.50
2019-02-26T01:42:34.823Z,4.40
2019-02-26T01:43:18.640Z,4.07
2019-02-26T01:45:05.616Z,5.83
2019-02-26T01:45:56.787Z,5.27
2019-02-26T01:46:43.785Z,3.80
2019-02-26T01:47:54.464Z,4.53
2019-02-26T01:48:57.449Z,5.00
2019-02-26T01:49:53.387Z,5.00
2019-02-26T01:50:33.475Z,5.10
2019-02-26T01:51:52.242Z,4.37
2019-02-26T01:54:51.370Z,4.37
2019-02-26T01:55:42.099Z,4.67
2019-02-26T01:56:42.449Z,4.10
2019-02-26T01:57:27.184Z,5.93
2019-02-26T01:58:09.855Z,4.53
2019-02-26T01:59:09.190Z,5.43
2019-02-26T01:59:53.205Z,5.00
2019-02-26T02:00:38.684Z,5.40
2019-02-26T02:01:21.391Z,5.70
2019-02-26T02:03:02.327Z,5.20
2019-02-26T02:04:44.628Z,5.80
2019-02-26T02:05:33.826Z,5.63
2019-02-26T02:07:04.236Z,5.33
2019-02-26T02:08:18.487Z,5.07
2019-02-26T02:10:07.347Z,5.60
2019-02-26T02:10:56.294Z,5.80
2019-02-26T02:11:43.149Z,5.27
2019-02-26T02:13:02.877Z,5.37
2019-02-26T02:13:41.374Z,5.57
2019-02-26T02:15:20.827Z,5.10
2019-02-26T02:16:04.907Z,6.50
2019-02-26T02:16:55.928Z,7.30
2019-02-26T02:17:43.568Z,6.63
2019-02-26T02:18:23.606Z,5.63
2019-02-26T02:19:02.974Z,5.93
2019-02-26T02:19:41.720Z,6.50
2019-02-26T02:20:30.157Z,5.20
2019-02-26T02:21:33.189Z,6.80
2019-02-26T02:22:19.145Z,6.60
2019-02-26T02:22:58.164Z,5.07
2019-02-26T02:23:44.254Z,6.13
2019-02-26T02:24:31.433Z,5.20
2019-02-26T02:25:24.682Z,5.70
2019-02-26T02:26:04.462Z,6.73
2019-02-26T02:27:22.582Z,7.23
2019-02-26T02:28:26.313Z,5.20
2019-02-26T02:29:34.254Z,4.93
2019-02-26T02:30:22.386Z,5.20
2019-02-26T02:30:58.367Z,6.30
2019-02-26T02:31:58.491Z,5.47
2019-02-26T02:32:40.159Z,5.37
2019-02-26T02:33:29.356Z,5.50
2019-02-26T02:34:12.159Z,6.77
2019-02-26T02:34:53.248Z,5.63
2019-02-26T02:37:27.467Z,6.10
2019-02-26T02:38:04.987Z,5.73
2019-02-26T02:38:41.294Z,5.30
2019-02-26T02:39:26.423Z,4.60
2019-02-26T02:40:01.808Z,6.70
2019-02-26T02:40:40.278Z,5.27
2019-02-26T02:41:17.646Z,5.60
2019-02-26T02:41:56.267Z,6.47
2019-02-26T02:42:37.523Z,5.73
2019-02-26T02:43:18.069Z,5.70
2019-02-26T02:43:55.683Z,6.17
2019-02-26T02:44:32.103Z,5.00
2019-02-26T02:45:20.111Z,6.20
2019-02-26T02:45:55.744Z,6.70
2019-02-26T02:46:34.131Z,6.37
2019-02-26T02:47:11.331Z,5.90
2019-02-26T02:47:54.748Z,6.10
2019-02-26T02:48:28.856Z,5.83
2019-02-26T02:49:09.824Z,5.80
2019-02-26T02:49:50.372Z,6.33
2019-02-26T02:50:47.057Z,6.93
2019-02-26T02:51:25.757Z,4.77
2019-02-26T02:52:04.148Z,5.97
2019-02-26T02:52:41.504Z,7.13
2019-02-26T02:53:21.044Z,5.67
2019-02-26T02:54:01.035Z,6.27
2019-02-26T02:54:38.597Z,6.33
2019-02-26T02:55:19.314Z,5.83
2019-02-26T02:55:55.958Z,6.53
2019-02-26T02:56:34.068Z,5.73
2019-02-26T02:57:11.947Z,5.23
2019-02-26T02:57:50.205Z,6.33
2019-02-26T02:58:26.177Z,6.90
2019-02-26T02:59:03.458Z,5.47
2019-02-26T02:59:42.264Z,6.07
2019-02-26T03:00:39.258Z,6.10
2019-02-26T03:01:19.566Z,5.43
2019-02-26T03:01:57.107Z,6.00
2019-02-26T03:02:37.677Z,5.67
2019-02-26T03:03:11.958Z,6.73
2019-02-26T03:03:50.301Z,7.07
2019-02-26T03:04:31.185Z,6.47
2019-02-26T03:05:06.838Z,5.87
2019-02-26T03:05:47.410Z,5.70
2019-02-26T03:06:25.010Z,5.97
2019-02-26T03:07:03.106Z,6.13
2019-02-26T03:07:42.065Z,5.80
2019-02-26T03:08:19.481Z,5.00
2019-02-26T03:08:56.473Z,6.43
2019-02-26T03:09:35.374Z,5.47
2019-02-26T03:10:13.005Z,5.43
2019-02-26T03:10:49.246Z,5.33
2019-02-26T03:11:25.941Z,6.73
2019-02-26T03:12:05.564Z,5.73
2019-02-26T03:12:44.023Z,5.63
2019-02-26T03:13:22.899Z,5.80
2019-02-26T03:13:59.947Z,5.00
2019-02-26T03:14:39.182Z,5.27
2019-02-26T03:15:17.713Z,6.50
2019-02-26T03:15:56.647Z,5.97
2019-02-26T03:16:33.503Z,5.47
2019-02-26T03:17:11.074Z,6.37
2019-02-26T03:17:47.878Z,6.03
2019-02-26T03:18:25.832Z,4.90
2019-02-26T03:19:04.771Z,5.90
2019-02-26T03:19:45.299Z,6.40
2019-02-26T03:20:24.720Z,5.43
2019-02-26T03:21:04.352Z,6.03
2019-02-26T03:21:42.142Z,5.27
2019-02-26T03:22:21.609Z,5.50
2019-02-26T03:22:57.362Z,6.40
2019-02-26T03:23:37.101Z,5.90
2019-02-26T03:24:13.165Z,5.80
2019-02-26T03:24:51.277Z,5.40
2019-02-26T03:25:30.240Z,4.70
2019-02-26T03:26:09.964Z,6.73
2019-02-26T03:26:45.121Z,6.43
2019-02-26T03:27:27.793Z,6.70
2019-02-26T03:28:04.065Z,6.70
2019-02-26T03:28:42.185Z,5.83
2019-02-26T03:29:18.603Z,6.90
2019-02-26T03:29:56.273Z,6.80
2019-02-26T03:30:40.206Z,6.27
2019-02-26T03:31:17.051Z,6.23
2019-02-26T03:31:55.458Z,6.33
2019-02-26T03:32:36.070Z,5.87
2019-02-26T03:33:11.185Z,6.07
2019-02-26T03:33:47.425Z,6.20
2019-02-26T03:34:25.262Z,5.40
2019-02-26T03:35:07.146Z,5.77
2019-02-26T03:35:41.432Z,6.80
2019-02-26T03:36:19.225Z,4.97
2019-02-26T03:36:57.816Z,6.50
2019-02-26T03:37:36.581Z,6.43
2019-02-26T03:38:15.001Z,6.30
2019-02-26T03:38:54.813Z,6.30
2019-02-26T03:39:39.617Z,5.87
2019-02-26T03:40:16.447Z,6.07
2019-02-26T03:40:55.498Z,5.67
2019-02-26T03:41:31.897Z,7.20
2019-02-26T03:42:10.472Z,6.50
2019-02-26T03:42:47.639Z,5.47
2019-02-26T03:43:25.383Z,5.20
2019-02-26T03:44:08.217Z,5.67
2019-02-26T03:44:46.181Z,4.87
2019-02-26T03:45:29.849Z,5.03
2019-02-26T03:46:09.747Z,5.77
2019-02-26T03:46:47.794Z,6.70
2019-02-26T03:47:24.284Z,5.37
2019-02-26T03:48:01.475Z,6.10
2019-02-26T03:48:38.008Z,5.90
2019-02-26T03:49:16.967Z,5.50
2019-02-26T03:49:55.252Z,5.07
2019-02-26T03:50:31.499Z,5.33
2019-02-26T03:51:08.352Z,5.73
2019-02-26T03:51:45.413Z,5.00
2019-02-26T03:52:21.812Z,4.40
2019-02-26T03:52:59.001Z,5.27
2019-02-26T03:53:48.693Z,6.30
2019-02-26T03:54:25.597Z,4.37
2019-02-26T03:55:03.540Z,4.30
2019-02-26T03:55:42.028Z,6.10
2019-02-26T03:56:20.565Z,5.47
2019-02-26T03:56:57.421Z,4.60
2019-02-26T03:57:33.840Z,4.97
2019-02-26T03:58:10.179Z,5.10
2019-02-26T03:58:46.832Z,4.93
2019-02-26T03:59:24.508Z,5.50
2019-02-26T04:00:05.599Z,5.57
2019-02-26T04:00:41.704Z,5.10
2019-02-26T04:01:19.411Z,5.70
2019-02-26T04:01:57.098Z,5.13
2019-02-26T04:02:33.220Z,4.53
2019-02-26T04:03:12.477Z,5.20
2019-02-26T04:03:50.870Z,4.60
2019-02-26T04:04:28.884Z,3.97
2019-02-26T04:05:08.955Z,4.33
2019-02-26T04:05:45.963Z,4.27
2019-02-26T04:06:23.159Z,4.20
2019-02-26T04:07:01.425Z,4.77
2019-02-26T04:07:38.988Z,4.73
2019-02-26T04:08:16.678Z,5.07
2019-02-26T04:08:57.465Z,4.93
2019-02-26T04:09:39.063Z,3.90
2019-02-26T04:10:14.688Z,4.80
2019-02-26T04:10:53.626Z,3.73
2019-02-26T04:11:29.751Z,4.03
2019-02-26T04:12:08.392Z,4.67
2019-02-26T04:12:48.614Z,5.53
2019-02-26T04:13:25.986Z,5.23
2019-02-26T04:14:03.931Z,3.93
2019-02-26T04:14:40.767Z,4.83
2019-02-26T04:15:18.197Z,4.13
2019-02-26T04:15:57.102Z,4.83
2019-02-26T04:16:35.279Z,4.80
2019-02-26T04:17:11.280Z,5.90
2019-02-26T04:17:49.881Z,4.70
2019-02-26T04:18:28.774Z,4.00
2019-02-26T04:19:08.614Z,4.30
2019-02-26T04:19:44.488Z,5.07
2019-02-26T04:20:21.074Z,4.90
2019-02-26T04:21:03.164Z,6.00
2019-02-26T04:22:12.483Z,4.50
2019-02-26T04:22:49.923Z,5.63
2019-02-26T04:23:25.182Z,4.57
2019-02-26T04:24:03.522Z,5.17
2019-02-26T04:24:40.361Z,5.30
2019-02-26T04:25:59.875Z,4.60
2019-02-26T04:27:10.992Z,5.03
2019-02-26T04:27:59.920Z,4.90
2019-02-26T04:28:47.577Z,5.20
2019-02-26T04:29:49.355Z,5.57
2019-02-26T04:31:05.420Z,6.03
2019-02-26T04:32:20.372Z,6.07
2019-02-26T04:33:32.718Z,5.63
2019-02-26T04:34:26.206Z,4.90
2019-02-26T04:35:47.686Z,5.97
2019-02-26T04:36:34.356Z,4.57
2019-02-26T04:38:03.461Z,4.70
2019-02-26T04:39:34.490Z,5.20
2019-02-26T04:40:47.134Z,4.90
2019-02-26T04:41:48.710Z,5.33
2019-02-26T04:42:53.663Z,4.97
2019-02-26T04:44:26.240Z,4.70
2019-02-26T04:45:48.236Z,6.30
2019-02-26T04:46:42.927Z,6.07
2019-02-26T04:47:27.029Z,5.17
2019-02-26T04:48:03.616Z,5.30
2019-02-26T04:48:41.468Z,5.60
2019-02-26T04:49:17.760Z,4.75
2019-02-26T04:49:57.293Z,4.90
2019-02-26T04:50:35.769Z,5.10
2019-02-26T04:51:12.905Z,5.50
2019-02-26T04:51:50.585Z,6.20
2019-02-26T04:52:29.626Z,4.80
2019-02-26T04:53:28.724Z,5.27
2019-02-26T04:54:05.513Z,4.83
2019-02-26T04:54:42.615Z,5.03
2019-02-26T04:55:20.756Z,5.37
2019-02-26T04:55:59.844Z,5.83
2019-02-26T04:56:39.567Z,5.70
2019-02-26T04:57:14.719Z,5.87
2019-02-26T04:57:53.961Z,4.90
2019-02-26T04:58:31.178Z,5.13
2019-02-26T04:59:09.781Z,5.33
2019-02-26T04:59:45.516Z,5.20
2019-02-26T05:00:26.173Z,4.70
2019-02-26T05:01:04.237Z,4.57
2019-02-26T05:01:40.893Z,6.17
2019-02-26T05:02:20.549Z,5.03
2019-02-26T05:02:56.798Z,4.97
2019-02-26T05:03:33.654Z,4.87
2019-02-26T05:04:10.031Z,5.57
2019-02-26T05:04:46.489Z,5.20
2019-02-26T05:05:25.862Z,4.77
2019-02-26T05:06:05.310Z,5.90
2019-02-26T05:06:42.776Z,5.77
2019-02-26T05:07:19.637Z,5.33
2019-02-26T05:07:59.001Z,5.60
2019-02-26T05:08:37.598Z,5.00
2019-02-26T05:09:15.656Z,5.70
2019-02-26T05:09:53.854Z,5.87
2019-02-26T05:10:34.398Z,4.97
2019-02-26T05:11:14.884Z,5.23
2019-02-26T05:11:57.139Z,4.57
2019-02-26T05:12:37.296Z,5.33
2019-02-26T05:13:15.202Z,4.60
2019-02-26T05:13:54.183Z,4.30
2019-02-26T05:14:33.287Z,5.00
2019-02-26T05:15:18.059Z,5.70
2019-02-26T05:15:52.857Z,5.47
2019-02-26T05:16:32.694Z,4.80
2019-02-26T05:17:10.859Z,4.47
2019-02-26T05:17:49.787Z,4.97
2019-02-26T05:18:28.532Z,6.30
2019-02-26T05:19:05.230Z,4.27
2019-02-26T05:19:48.260Z,4.47
2019-02-26T05:20:23.407Z,4.77
2019-02-26T05:21:04.169Z,5.83
2019-02-26T05:21:38.478Z,5.50
2019-02-26T05:22:15.287Z,5.97
2019-02-26T05:22:54.758Z,4.87
2019-02-26T05:23:34.440Z,4.50
2019-02-26T05:24:13.071Z,5.77
2019-02-26T05:24:52.802Z,5.90
2019-02-26T05:25:31.487Z,5.20
2019-02-26T05:26:11.667Z,5.63
2019-02-26T05:26:46.751Z,5.00
2019-02-26T05:27:24.959Z,5.93
2019-02-26T05:28:03.670Z,6.70
2019-02-26T05:28:47.018Z,5.10
2019-02-26T05:29:22.922Z,5.67
2019-02-26T05:30:00.031Z,5.20
2019-02-26T05:30:37.789Z,4.90
2019-02-26T05:31:18.114Z,5.73
2019-02-26T05:31:55.613Z,4.40
2019-02-26T05:32:35.032Z,4.80
2019-02-26T05:33:14.113Z,5.10
2019-02-26T05:33:54.202Z,5.50
2019-02-26T05:34:32.162Z,5.07
2019-02-26T05:35:08.929Z,5.30
2019-02-26T05:35:46.244Z,5.10
2019-02-26T05:36:28.228Z,5.30
2019-02-26T05:37:08.181Z,4.80
2019-02-26T05:37:47.516Z,5.57
2019-02-26T05:38:49.297Z,5.73
2019-02-26T05:39:28.822Z,4.80
2019-02-26T05:40:09.057Z,4.87
2019-02-26T05:40:48.194Z,6.73
2019-02-26T05:41:25.689Z,5.60
2019-02-26T05:42:04.069Z,6.33
2019-02-26T05:42:40.974Z,5.60
2019-02-26T05:43:20.403Z,6.67
2019-02-26T05:44:03.495Z,5.70
2019-02-26T05:44:39.705Z,5.70
2019-02-26T05:45:16.646Z,4.97
2019-02-26T05:45:54.861Z,5.33
2019-02-26T05:46:34.094Z,5.63
2019-02-26T05:47:13.004Z,5.07
2019-02-26T05:47:51.258Z,5.80
2019-02-26T05:48:31.444Z,5.93
2019-02-26T05:49:13.239Z,5.80
2019-02-26T05:49:48.104Z,4.97
2019-02-26T05:50:24.870Z,5.53
2019-02-26T05:51:03.592Z,4.87
2019-02-26T05:51:39.510Z,6.00
2019-02-26T05:52:35.866Z,5.50
2019-02-26T05:53:18.479Z,6.00
2019-02-26T05:53:56.061Z,5.33
2019-02-26T05:54:32.283Z,6.13
2019-02-26T05:55:08.747Z,5.00
2019-02-26T05:55:48.539Z,5.77
2019-02-26T05:56:27.430Z,5.30
2019-02-26T05:57:06.570Z,5.17
2019-02-26T05:57:43.682Z,4.00
2019-02-26T05:58:21.503Z,6.03
2019-02-26T05:59:02.090Z,6.07
2019-02-26T05:59:35.881Z,4.03
2019-02-26T06:00:18.306Z,5.17
2019-02-26T06:00:55.063Z,5.57
2019-02-26T06:01:31.808Z,4.60
2019-02-26T06:02:21.641Z,4.80
2019-02-26T06:02:59.233Z,4.30
2019-02-26T06:03:38.499Z,6.47
2019-02-26T06:04:23.386Z,4.87
2019-02-26T06:04:59.951Z,5.40
2019-02-26T06:05:41.184Z,5.57
2019-02-26T06:06:15.655Z,5.10
2019-02-26T06:06:55.532Z,5.47
2019-02-26T06:07:33.365Z,5.10
2019-02-26T06:08:11.676Z,5.10
2019-02-26T06:08:49.395Z,4.77
2019-02-26T06:09:28.546Z,4.80
2019-02-26T06:10:07.074Z,4.47
2019-02-26T06:10:55.813Z,5.57
2019-02-26T06:11:36.329Z,4.40
2019-02-26T06:12:12.755Z,4.80
2019-02-26T06:12:49.156Z,5.30
2019-02-26T06:13:29.167Z,4.40
2019-02-26T06:14:20.156Z,5.13
2019-02-26T06:15:02.077Z,5.73
2019-02-26T06:15:38.541Z,4.67
2019-02-26T06:16:14.931Z,5.97
2019-02-26T06:16:55.081Z,5.00
2019-02-26T06:17:31.327Z,5.20
2019-02-26T06:18:07.823Z,5.30
2019-02-26T06:18:46.396Z,5.37
2019-02-26T06:19:37.733Z,5.50
2019-02-26T06:20:19.230Z,5.50
2019-02-26T06:20:56.706Z,6.43
2019-02-26T06:21:34.352Z,4.77
2019-02-26T06:22:14.518Z,5.00
2019-02-26T06:22:51.695Z,5.40
2019-02-26T06:23:33.804Z,5.33
2019-02-26T06:24:10.506Z,4.83
2019-02-26T06:24:49.288Z,5.80
2019-02-26T06:25:25.795Z,5.27
2019-02-26T06:26:04.910Z,5.10
2019-02-26T06:26:45.524Z,5.00
2019-02-26T06:27:27.271Z,5.80
2019-02-26T06:28:06.945Z,5.43
2019-02-26T06:28:43.470Z,6.83
2019-02-26T06:29:22.267Z,5.10
2019-02-26T06:29:58.163Z,4.87
2019-02-26T06:30:35.197Z,5.73
2019-02-26T06:31:22.096Z,5.10
2019-02-26T06:32:09.628Z,4.60
2019-02-26T06:32:47.141Z,5.87
2019-02-26T06:33:23.626Z,5.80
2019-02-26T06:34:03.523Z,5.40
2019-02-26T06:34:38.120Z,4.40
2019-02-26T06:35:17.037Z,5.83
2019-02-26T06:35:59.015Z,5.23
2019-02-26T06:36:36.316Z,5.00
2019-02-26T06:37:23.430Z,4.90
2019-02-26T06:38:02.125Z,5.07
2019-02-26T06:38:42.847Z,6.30
2019-02-26T06:39:22.244Z,7.00
2019-02-26T06:40:02.486Z,5.57
2019-02-26T06:40:39.315Z,5.73
2019-02-26T06:41:16.366Z,6.13
2019-02-26T06:41:57.606Z,6.10
2019-02-26T06:42:37.942Z,6.03
2019-02-26T06:43:39.619Z,5.87
2019-02-26T06:44:14.194Z,6.67
2019-02-26T06:44:51.419Z,5.23
2019-02-26T06:45:27.914Z,5.20
2019-02-26T06:46:05.363Z,6.03
2019-02-26T06:46:42.439Z,6.33
2019-02-26T06:47:18.921Z,7.23
2019-02-26T06:47:56.410Z,7.17
2019-02-26T06:48:33.072Z,6.33
2019-02-26T06:49:09.214Z,6.53
2019-02-26T06:49:46.145Z,6.10
2019-02-26T06:50:23.684Z,6.67
2019-02-26T06:51:02.689Z,5.90
2019-02-26T06:51:44.984Z,6.70
2019-02-26T06:52:23.056Z,6.77
2019-02-26T06:52:59.399Z,6.07
2019-02-26T06:53:35.711Z,7.10
2019-02-26T06:54:19.631Z,5.97
2019-02-26T06:54:58.091Z,6.00
2019-02-26T06:55:41.663Z,7.07
2019-02-26T06:56:18.385Z,6.40
2019-02-26T06:56:55.476Z,6.37
2019-02-26T06:57:31.780Z,4.93
2019-02-26T06:58:31.520Z,5.80
2019-02-26T06:59:34.477Z,4.97
2019-02-26T07:00:21.248Z,5.13
2019-02-26T07:00:58.087Z,5.27
2019-02-26T07:01:39.640Z,4.90
2019-02-26T07:02:17.093Z,5.00
2019-02-26T07:03:02.645Z,5.87
2019-02-26T07:03:44.386Z,6.15
2019-02-26T07:04:29.406Z,5.80
2019-02-26T07:05:05.330Z,4.60
2019-02-26T07:06:27.719Z,6.67
2019-02-26T07:07:06.814Z,5.20
2019-02-26T07:07:45.539Z,5.33
2019-02-26T07:08:24.188Z,4.60
2019-02-26T07:09:02.279Z,4.83
2019-02-26T07:09:41.934Z,4.80
2019-02-26T07:10:26.007Z,4.97
2019-02-26T07:11:03.926Z,5.83
2019-02-26T07:11:43.048Z,5.30
2019-02-26T07:12:23.936Z,6.00
2019-02-26T07:13:08.853Z,5.50
2019-02-26T07:13:45.990Z,5.60
2019-02-26T07:14:27.202Z,6.23
2019-02-26T07:15:05.975Z,5.40
2019-02-26T07:16:05.297Z,4.77
2019-02-26T07:16:41.623Z,5.20
2019-02-26T07:17:21.096Z,5.17
2019-02-26T07:18:02.238Z,4.63
2019-02-26T07:18:41.237Z,4.20
2019-02-26T07:19:18.168Z,5.97
2019-02-26T07:19:55.923Z,5.50
2019-02-26T07:20:34.332Z,5.23
2019-02-26T07:21:13.617Z,5.40
2019-02-26T07:21:52.974Z,5.47
2019-02-26T07:22:51.609Z,5.40
2019-02-26T07:23:29.808Z,5.93
2019-02-26T07:24:07.703Z,5.37
2019-02-26T07:24:48.299Z,5.77
2019-02-26T07:25:28.233Z,5.60
2019-02-26T07:26:04.799Z,6.07
2019-02-26T07:26:46.377Z,6.60
2019-02-26T07:27:26.484Z,5.77
2019-02-26T07:28:06.750Z,6.30
2019-02-26T07:28:48.717Z,5.77
2019-02-26T07:29:39.462Z,6.10
2019-02-26T07:30:16.094Z,5.80
2019-02-26T07:30:57.042Z,6.60
2019-02-26T07:31:44.001Z,6.10
2019-02-26T07:32:28.417Z,6.40
2019-02-26T07:33:05.357Z,5.40
2019-02-26T07:33:44.942Z,6.30
2019-02-26T07:34:22.788Z,6.47
2019-02-26T07:35:24.409Z,5.53
2019-02-26T07:36:04.123Z,5.90
2019-02-26T07:36:43.267Z,5.93
2019-02-26T07:37:22.649Z,4.73
2019-02-26T07:38:01.736Z,5.03
2019-02-26T07:38:41.565Z,6.20
2019-02-26T07:39:32.358Z,6.33
2019-02-26T07:40:15.238Z,6.03
2019-02-26T07:40:51.070Z,6.90
2019-02-26T07:41:34.544Z,5.13
2019-02-26T07:42:11.504Z,5.87
2019-02-26T07:42:49.984Z,5.20
2019-02-26T07:43:28.808Z,5.50
2019-02-26T07:44:11.464Z,6.50
2019-02-26T07:44:46.554Z,6.23
2019-02-26T07:45:30.390Z,5.43
2019-02-26T07:46:12.142Z,6.10
2019-02-26T07:46:48.581Z,5.10
2019-02-26T07:47:29.394Z,6.20
2019-02-26T07:48:05.983Z,5.97
2019-02-26T07:48:42.743Z,6.00
2019-02-26T07:49:19.996Z,5.67
2019-02-26T07:49:58.891Z,6.70
2019-02-26T07:50:40.274Z,5.83
2019-02-26T07:51:20.462Z,6.13
2019-02-26T07:52:03.895Z,6.03
2019-02-26T07:52:43.758Z,5.67
2019-02-26T07:53:22.174Z,6.13
2019-02-26T07:54:00.841Z,5.57
2019-02-26T07:54:40.482Z,5.13
2019-02-26T07:55:17.445Z,6.07
2019-02-26T07:55:56.848Z,6.03
2019-02-26T07:56:34.491Z,5.87
2019-02-26T07:57:11.145Z,5.93
2019-02-26T07:57:50.703Z,5.67
2019-02-26T07:58:30.891Z,5.23
2019-02-26T07:59:09.814Z,6.30
2019-02-26T07:59:50.142Z,7.00
2019-02-26T08:00:30.550Z,6.13
2019-02-26T08:01:07.240Z,5.70
2019-02-26T08:01:45.315Z,5.40
2019-02-26T08:02:26.066Z,5.70
2019-02-26T08:03:24.803Z,7.00
2019-02-26T08:04:02.389Z,5.70
2019-02-26T08:04:39.485Z,6.67
2019-02-26T08:05:21.211Z,6.35
2019-02-26T08:05:59.300Z,5.50
2019-02-26T08:06:36.176Z,6.80
2019-02-26T08:07:13.625Z,5.50
2019-02-26T08:07:51.978Z,6.50
2019-02-26T08:08:27.928Z,6.70
2019-02-26T08:09:08.720Z,6.37
2019-02-26T08:09:43.970Z,5.40
2019-02-26T08:10:20.511Z,5.90
2019-02-26T08:11:00.578Z,6.67
2019-02-26T08:11:57.665Z,5.97
2019-02-26T08:12:35.573Z,5.80
2019-02-26T08:13:12.191Z,6.50
2019-02-26T08:13:54.222Z,6.50
2019-02-26T08:14:30.654Z,6.23
2019-02-26T08:15:10.406Z,5.87
2019-02-26T08:15:49.343Z,6.73
2019-02-26T08:16:51.407Z,6.93
2019-02-26T08:17:31.015Z,6.70
2019-02-26T08:18:07.799Z,7.23
2019-02-26T08:18:47.369Z,6.13
2019-02-26T08:19:29.563Z,7.93
2019-02-26T08:20:10.010Z,6.13
2019-02-26T08:20:45.485Z,5.90
2019-02-26T08:21:22.911Z,7.10
2019-02-26T08:22:04.226Z,6.67
2019-02-26T08:22:41.824Z,7.30
2019-02-26T08:23:21.525Z,6.93
2019-02-26T08:23:57.465Z,6.67
2019-02-26T08:24:37.074Z,7.77
2019-02-26T08:25:15.790Z,7.90
2019-02-26T08:25:52.872Z,7.97
2019-02-26T08:26:30.152Z,6.20
2019-02-26T08:27:08.460Z,7.40
2019-02-26T08:27:49.320Z,6.77
2019-02-26T08:28:25.133Z,6.33
2019-02-26T08:29:02.713Z,6.10
2019-02-26T08:29:39.671Z,6.83
2019-02-26T08:30:21.395Z,7.93
2019-02-26T08:30:59.053Z,6.77
2019-02-26T08:31:36.691Z,7.03
2019-02-26T08:32:18.094Z,7.03
2019-02-26T08:32:56.111Z,6.93
2019-02-26T08:33:32.254Z,6.33
2019-02-26T08:34:15.677Z,6.80
2019-02-26T08:34:53.975Z,6.20
2019-02-26T08:35:31.796Z,7.00
2019-02-26T08:36:09.230Z,5.77
2019-02-26T08:36:49.054Z,6.30
2019-02-26T08:37:27.077Z,7.97
2019-02-26T08:38:05.691Z,7.30
2019-02-26T08:38:42.827Z,6.40
2019-02-26T08:39:19.275Z,6.00
2019-02-26T08:39:58.253Z,6.40
2019-02-26T08:40:37.533Z,6.23
2019-02-26T08:41:13.805Z,7.30
2019-02-26T08:42:08.009Z,7.03
2019-02-26T08:42:44.513Z,6.37
2019-02-26T08:43:23.288Z,6.53
2019-02-26T08:44:01.260Z,6.80
2019-02-26T08:44:41.083Z,6.40
2019-02-26T08:45:25.120Z,6.80
2019-02-26T08:45:59.546Z,6.17
2019-02-26T08:46:42.725Z,7.17
2019-02-26T08:47:21.600Z,6.03
2019-02-26T08:48:00.181Z,7.57
2019-02-26T08:48:36.574Z,6.43
2019-02-26T08:49:13.768Z,6.83
2019-02-26T08:49:51.939Z,7.10
2019-02-26T08:50:33.047Z,7.63
2019-02-26T08:51:09.045Z,6.13
2019-02-26T08:51:45.189Z,7.03
2019-02-26T08:52:29.354Z,6.03
2019-02-26T08:53:05.910Z,7.90
2019-02-26T08:53:44.423Z,7.03
2019-02-26T08:54:26.087Z,7.50
2019-02-26T08:55:01.710Z,6.20
2019-02-26T08:55:38.458Z,6.33
2019-02-26T08:56:16.139Z,7.83
2019-02-26T08:56:55.527Z,6.27
2019-02-26T08:57:34.646Z,6.13
2019-02-26T08:58:12.551Z,5.43
2019-02-26T08:58:49.506Z,6.50
2019-02-26T08:59:25.923Z,6.87
2019-02-26T09:00:03.050Z,6.20
2019-02-26T09:00:43.059Z,6.47
2019-02-26T09:01:26.995Z,6.87
2019-02-26T09:02:07.334Z,7.27
2019-02-26T09:02:46.006Z,6.03
2019-02-26T09:03:23.052Z,6.73
2019-02-26T09:04:00.897Z,7.83
2019-02-26T09:04:38.326Z,5.87
2019-02-26T09:05:19.397Z,7.07
2019-02-26T09:06:10.871Z,6.53
2019-02-26T09:06:36.912Z,6.40
2019-02-26T09:07:16.468Z,6.83
2019-02-26T09:07:52.751Z,6.37
2019-02-26T09:08:32.670Z,5.70
2019-02-26T09:09:16.018Z,5.60
2019-02-26T09:09:54.848Z,7.07
2019-02-26T09:10:31.124Z,6.47
2019-02-26T09:11:08.636Z,7.23
2019-02-26T09:11:50.153Z,7.37
2019-02-26T09:12:27.637Z,5.90
2019-02-26T09:13:06.152Z,6.10
2019-02-26T09:13:44.018Z,6.63
2019-02-26T09:14:40.874Z,5.90
2019-02-26T09:15:19.268Z,6.40
2019-02-26T09:15:57.743Z,6.17
2019-02-26T09:16:35.527Z,6.50
2019-02-26T09:17:24.378Z,6.70
2019-02-26T09:18:08.463Z,6.37
2019-02-26T09:18:45.738Z,5.67
2019-02-26T09:19:25.272Z,5.80
2019-02-26T09:20:09.172Z,6.33
2019-02-26T09:20:41.648Z,5.33
2019-02-26T09:21:22.882Z,6.30
2019-02-26T09:21:59.911Z,6.10
2019-02-26T09:22:37.137Z,6.60
2019-02-26T09:23:18.807Z,5.67
2019-02-26T09:23:57.030Z,5.70
2019-02-26T09:24:54.517Z,5.50
2019-02-26T09:25:33.923Z,5.67
2019-02-26T09:26:13.457Z,5.90
2019-02-26T09:26:52.073Z,5.87
2019-02-26T09:27:29.482Z,5.80
2019-02-26T09:28:06.584Z,5.40
2019-02-26T09:28:45.666Z,6.47
2019-02-26T09:29:23.845Z,5.83
2019-02-26T09:30:05.793Z,6.17
2019-02-26T09:30:42.291Z,5.37
2019-02-26T09:31:20.001Z,6.50